Time;durP1;ratioP1;P1;durP2;ratioP2;P2;SDS_P1;SDS_P2;PMS_P1;PMS_P2;Temp;Humidity;BMP_temperature;BMP_pressure;BME280_temperature;BME280_humidity;BME280_pressure;Samples;Min_cycle;Max_cycle;Signal;HPM_P1;HPM_P2
2023/03/07 00:02:19;;;;;;;13.53;7.27;;;3.20;63.80;;;6.66;43.01;96435.56;5073992;28;20040;-45
2023/03/07 00:04:47;;;;;;;10.90;6.33;;;3.20;63.70;;;6.68;43.22;96444.16;5074282;28;20496;-47
2023/03/07 00:07:14;;;;;;;11.03;6.80;;;3.20;63.70;;;6.68;43.20;96441.53;5073790;28;20043;-43
2023/03/07 00:09:42;;;;;;;12.73;7.23;;;3.20;63.60;;;6.69;43.19;96451.94;5056410;28;20059;-44
2023/03/07 00:12:10;;;;;;;15.37;7.40;;;3.30;64.40;;;6.73;43.48;96452.44;5064675;28;20610;-44
2023/03/07 00:14:37;;;;;;;11.77;6.33;;;3.30;63.50;;;6.77;43.52;96445.81;5039471;28;20053;-44
2023/03/07 00:17:05;;;;;;;12.47;7.23;;;3.30;63.30;;;6.78;43.69;96441.34;5073725;28;20045;-45
2023/03/07 00:19:33;;;;;;;13.37;7.70;;;3.30;63.50;;;6.79;43.59;96443.84;5074167;28;20051;-44
2023/03/07 00:22:00;;;;;;;11.30;7.40;;;3.30;63.50;;;6.79;43.02;96430.59;5073900;28;20419;-43
2023/03/07 00:24:28;;;;;;;12.50;6.70;;;3.30;63.60;;;6.79;43.64;96432.44;5074153;28;20048;-44
2023/03/07 00:26:55;;;;;;;11.50;7.03;;;3.30;63.50;;;6.82;43.41;96424.97;5073439;28;20045;-46
2023/03/07 00:29:23;;;;;;;11.93;6.30;;;3.30;63.60;;;6.83;43.36;96428.47;5073693;28;20077;-47
2023/03/07 00:31:51;;;;;;;10.80;6.73;;;3.30;63.50;;;6.80;43.03;96426.13;5073556;28;20044;-49
2023/03/07 00:34:19;;;;;;;11.70;6.67;;;3.30;63.70;;;6.81;43.27;96422.50;5074184;28;20468;-45
2023/03/07 00:36:47;;;;;;;14.80;7.83;;;3.30;63.60;;;6.85;42.86;96426.47;5054486;28;20415;-49
2023/03/07 00:39:14;;;;;;;13.23;7.00;;;3.30;63.20;;;6.85;43.17;96415.88;5073722;28;20357;-48
2023/03/07 00:41:42;;;;;;;13.93;7.97;;;3.30;63.40;;;6.85;42.93;96422.00;5038681;28;20056;-44
2023/03/07 00:44:09;;;;;;;13.53;7.30;;;3.30;63.10;;;6.85;42.95;96406.13;5073592;28;20520;-49
2023/03/07 00:46:38;;;;;;;13.47;6.50;;;3.30;63.20;;;6.85;42.73;96411.41;5063208;28;20044;-47
2023/03/07 00:49:06;;;;;;;14.17;7.57;;;3.40;63.10;;;6.85;42.92;96406.13;5047936;28;20508;-44
2023/03/07 00:51:33;;;;;;;11.87;7.03;;;3.30;63.20;;;6.87;42.76;96412.06;5055468;28;20059;-47
2023/03/07 00:54:01;;;;;;;12.37;6.93;;;3.30;63.00;;;6.89;42.92;96409.25;5073133;28;20052;-44
2023/03/07 00:56:29;;;;;;;11.53;6.70;;;3.40;63.10;;;6.89;42.59;96410.09;5054623;28;20052;-47
2023/03/07 00:58:56;;;;;;;11.73;7.83;;;3.40;62.90;;;6.86;42.92;96405.16;5055406;28;20051;-46
2023/03/07 01:01:24;;;;;;;15.33;8.80;;;3.30;63.00;;;6.86;43.12;96412.22;5055524;28;20045;-45
2023/03/07 01:03:53;;;;;;;14.07;6.83;;;3.30;63.20;;;6.85;42.73;96408.78;5055010;28;20049;-46
2023/03/07 01:06:25;;;;;;;12.33;7.03;;;3.40;63.10;;;6.85;42.68;96416.72;5071107;28;20404;-46
2023/03/07 01:09:04;;;;;;;12.85;7.10;;;3.30;63.30;;;6.85;43.31;96415.88;5055079;28;20036;-45
2023/03/07 01:11:34;;;;;;;12.97;6.43;;;3.30;63.30;;;6.84;42.76;96409.78;5054587;28;20052;-45
2023/03/07 01:14:04;;;;;;;13.73;7.37;;;3.30;63.50;;;6.84;42.62;96406.28;5054591;28;20045;-47
2023/03/07 01:16:37;;;;;;;13.47;6.93;;;3.30;63.20;;;6.84;43.44;96401.00;5054645;28;20405;-45
2023/03/07 01:19:11;;;;;;;13.80;7.87;;;3.30;63.20;;;6.81;43.40;96402.16;5038419;28;20504;-43
2023/03/07 01:21:41;;;;;;;12.35;7.43;;;3.30;63.30;;;6.82;43.36;96403.81;5071078;28;20048;-44
2023/03/07 01:24:14;;;;;;;13.50;7.03;;;3.30;63.20;;;6.81;42.67;96396.88;5055502;28;20044;-46
2023/03/07 01:26:42;;;;;;;12.18;7.05;;;3.30;62.70;;;6.82;42.71;96395.06;5072600;28;20287;-46
2023/03/07 01:29:11;;;;;;;11.23;6.80;;;3.30;62.50;;;6.83;43.11;96396.72;5054557;28;20040;-48
2023/03/07 01:31:38;;;;;;;13.00;7.57;;;3.30;62.70;;;6.84;42.94;96393.06;5072516;28;20043;-44
2023/03/07 01:34:07;;;;;;;12.53;7.20;;;3.30;62.40;;;6.88;43.31;96386.44;5042750;28;20525;-44
2023/03/07 01:36:36;;;;;;;12.60;7.23;;;3.40;62.60;;;6.90;42.67;96379.16;5050483;28;20044;-46
2023/03/07 01:39:12;;;;;;;16.17;7.03;;;3.40;62.30;;;6.94;42.38;96371.72;5072505;28;20060;-45
2023/03/07 01:41:48;;;;;;;17.87;8.37;;;3.40;62.40;;;6.96;42.94;96375.84;5070029;28;20052;-45
2023/03/07 01:44:24;;;;;;;11.47;6.93;;;3.40;62.50;;;6.95;43.13;96371.53;5054587;28;20075;-43
2023/03/07 01:46:57;;;;;;;12.97;6.83;;;3.40;62.60;;;6.94;43.12;96375.19;5053991;28;20044;-50
2023/03/07 01:49:37;;;;;;;13.57;7.23;;;3.40;62.70;;;6.94;42.79;96369.06;5038714;28;20110;-47
2023/03/07 01:52:33;;;;;;;11.93;6.33;;;3.40;62.60;;;6.90;42.76;96368.56;5051192;28;20037;-46
2023/03/07 01:55:31;;;;;;;12.00;6.50;;;3.40;62.50;;;6.97;42.96;96366.09;5038880;28;20415;-48
2023/03/07 01:58:13;;;;;;;13.37;6.60;;;3.40;62.50;;;6.98;42.92;96367.72;5054196;28;20044;-46
2023/03/07 02:00:43;;;;;;;11.25;6.50;;;3.40;62.50;;;6.96;42.99;96367.91;5035749;28;20048;-49
2023/03/07 02:03:31;;;;;;;11.33;6.97;;;3.40;62.70;;;6.92;43.03;96363.97;5053906;28;20389;-44
2023/03/07 02:06:08;;;;;;;13.03;7.50;;;3.40;62.30;;;6.95;42.36;96360.97;5052779;28;20451;-45
2023/03/07 02:08:37;;;;;;;13.03;6.40;;;3.40;62.40;;;6.94;42.96;96356.69;5037773;28;20047;-46
2023/03/07 02:11:06;;;;;;;13.37;6.47;;;3.40;62.20;;;6.89;43.04;96349.22;5070398;28;20048;-45
2023/03/07 02:13:34;;;;;;;13.13;7.43;;;3.40;61.90;;;6.86;43.17;96360.16;5054468;28;20056;-45
2023/03/07 02:16:04;;;;;;;12.77;6.87;;;3.40;61.80;;;6.86;42.59;96343.44;5053433;28;20420;-44
2023/03/07 02:18:39;;;;;;;16.00;7.87;;;3.40;61.70;;;6.89;43.09;96336.00;5053709;28;20048;-44
2023/03/07 02:21:32;;;;;;;13.50;7.83;;;3.50;61.60;;;6.87;42.44;96342.47;5053926;28;20055;-45
2023/03/07 02:27:00;;;;;;;12.17;7.40;;;3.50;61.60;;;6.99;42.56;96341.09;5057345;28;20064;-45
2023/03/07 02:29:28;;;;;;;13.27;7.40;;;3.50;61.60;;;6.98;42.57;96335.97;5052972;28;20419;-50
2023/03/07 02:31:55;;;;;;;14.87;7.63;;;3.60;61.40;;;6.98;42.50;96334.16;5053080;28;20051;-45
2023/03/07 02:34:27;;;;;;;14.47;7.23;;;3.50;61.60;;;6.99;42.50;96332.34;5071515;28;20036;-45
2023/03/07 02:37:17;;;;;;;11.90;7.00;;;3.50;61.30;;;6.99;42.72;96319.94;5046289;28;20115;-46
2023/03/07 02:39:47;;;;;;;12.13;7.00;;;3.50;62.30;;;7.02;42.53;96318.78;5037813;28;20055;-50
2023/03/07 02:42:22;;;;;;;12.40;7.27;;;3.60;61.60;;;7.04;42.13;96324.72;5036223;28;20067;-45
2023/03/07 02:45:01;;;;;;;13.03;7.23;;;3.60;61.50;;;7.03;42.01;96318.59;5052835;28;20032;-45
2023/03/07 02:47:33;;;;;;;13.10;7.07;;;3.50;61.70;;;7.03;42.25;96317.78;5053274;28;20056;-49
2023/03/07 02:50:01;;;;;;;13.20;8.10;;;3.50;61.80;;;7.04;42.57;96319.44;5053592;28;20040;-44
2023/03/07 02:52:29;;;;;;;16.10;7.53;;;3.50;61.80;;;7.01;42.66;96320.59;5053084;28;20409;-47
2023/03/07 02:54:57;;;;;;;19.23;8.03;;;3.50;61.90;;;7.03;42.28;96318.59;5071127;28;20041;-44
2023/03/07 02:57:29;;;;;;;13.27;7.73;;;3.50;62.10;;;7.07;42.97;96319.88;5052587;28;20049;-47
2023/03/07 02:59:58;;;;;;;11.57;7.77;;;3.60;62.90;;;7.09;42.63;96312.63;5061073;28;20052;-44
2023/03/07 03:02:26;;;;;;;12.57;7.20;;;3.60;62.30;;;7.14;42.63;96313.94;5070945;28;20397;-46
2023/03/07 03:04:54;;;;;;;11.47;6.50;;;3.60;62.30;;;7.11;42.86;96312.44;5051151;28;20045;-46
2023/03/07 03:07:23;;;;;;;13.83;6.80;;;3.60;62.40;;;7.11;42.16;96312.44;5070858;28;20032;-45
2023/03/07 03:09:50;;;;;;;12.50;6.73;;;3.50;62.60;;;7.14;42.82;96317.41;5052930;28;20416;-46
2023/03/07 03:12:18;;;;;;;11.53;6.63;;;3.60;62.70;;;7.17;42.73;96314.41;5052752;28;20040;-44
2023/03/07 03:14:45;;;;;;;13.60;8.77;;;3.60;62.60;;;7.18;42.85;96315.25;5053074;28;20051;-46
2023/03/07 03:17:13;;;;;;;12.93;7.47;;;3.60;62.70;;;7.13;42.39;96306.97;5044850;28;20053;-45
2023/03/07 03:19:41;;;;;;;13.20;7.80;;;3.60;62.80;;;7.10;43.10;96303.69;5053325;28;20504;-46
2023/03/07 03:22:10;;;;;;;12.30;6.67;;;3.60;63.10;;;7.09;43.35;96311.78;5052319;28;20040;-46
2023/03/07 03:24:41;;;;;;;10.73;6.80;;;3.60;63.30;;;7.10;42.81;96297.56;5068835;28;20036;-47
2023/03/07 03:27:13;;;;;;;13.97;8.27;;;3.60;63.40;;;7.16;42.56;96299.53;5036423;28;20045;-46
2023/03/07 03:29:41;;;;;;;11.83;6.60;;;3.60;63.40;;;7.17;42.73;96306.44;5071014;28;20055;-49
2023/03/07 03:32:10;;;;;;;11.80;7.67;;;3.60;63.50;;;7.17;43.48;96301.16;5052546;28;20044;-49
2023/03/07 03:34:38;;;;;;;13.87;6.77;;;3.60;63.70;;;7.13;42.99;96299.84;5052025;28;20056;-49
2023/03/07 03:37:06;;;;;;;12.50;7.20;;;3.60;64.10;;;7.07;43.31;96303.19;5051533;28;20071;-48
2023/03/07 03:39:34;;;;;;;13.20;7.77;;;3.60;64.10;;;7.06;43.69;96298.91;5053063;28;20435;-44
2023/03/07 03:42:02;;;;;;;11.93;6.80;;;3.60;64.50;;;7.05;43.27;96297.25;5070507;28;20041;-44
2023/03/07 03:44:30;;;;;;;12.17;6.60;;;3.50;64.70;;;6.99;43.86;96297.94;5068113;28;20511;-46
2023/03/07 03:46:58;;;;;;;11.93;6.57;;;3.50;64.80;;;6.98;43.33;96288.34;5052213;28;20412;-45
2023/03/07 03:49:26;;;;;;;10.60;6.20;;;3.50;64.80;;;7.01;43.93;96288.81;5052592;28;20040;-48
2023/03/07 03:51:55;;;;;;;13.33;7.27;;;3.60;64.80;;;7.03;43.31;96286.84;5052704;28;20419;-45
2023/03/07 03:54:22;;;;;;;13.93;7.47;;;3.60;64.80;;;7.02;43.76;96281.72;5068563;28;20048;-46
2023/03/07 03:56:51;;;;;;;12.10;7.23;;;3.60;65.00;;;7.04;43.92;96275.25;5051644;28;20047;-47
2023/03/07 03:59:21;;;;;;;13.57;7.20;;;3.60;65.30;;;7.02;44.07;96285.19;5049608;28;20045;-46
2023/03/07 04:01:48;;;;;;;11.97;7.57;;;3.60;65.90;;;7.05;43.81;96281.38;5057517;28;20052;-47
2023/03/07 04:04:18;;;;;;;12.93;7.93;;;3.60;65.90;;;7.07;44.25;96276.72;5061168;28;20043;-43
2023/03/07 04:06:46;;;;;;;13.90;7.63;;;3.60;66.30;;;7.05;44.07;96278.72;5070622;28;20059;-45
2023/03/07 04:09:14;;;;;;;13.30;8.17;;;3.60;66.80;;;7.08;44.04;96281.03;5052495;28;20045;-44
2023/03/07 04:11:45;;;;;;;14.90;8.20;;;3.60;66.90;;;7.04;44.78;96271.81;5052151;28;20357;-46
2023/03/07 04:14:13;;;;;;;13.33;8.13;;;3.60;67.30;;;7.05;44.67;96279.53;5035830;28;20059;-44
2023/03/07 04:16:40;;;;;;;11.20;7.53;;;3.60;67.30;;;7.10;44.11;96277.22;5068359;28;20048;-46
2023/03/07 04:19:11;;;;;;;14.60;7.17;;;3.70;67.40;;;7.12;44.72;96268.28;5051931;28;20044;-44
2023/03/07 04:21:39;;;;;;;13.20;6.90;;;3.70;67.40;;;7.12;44.67;96265.66;5052172;28;20147;-44
2023/03/07 04:24:07;;;;;;;9.77;6.83;;;3.70;67.60;;;7.17;44.99;96264.09;5035772;28;20056;-48
2023/03/07 04:26:35;;;;;;;12.43;6.77;;;3.70;67.40;;;7.16;44.32;96266.94;5070046;28;20040;-45
2023/03/07 04:29:03;;;;;;;13.13;7.07;;;3.70;67.50;;;7.17;44.66;96265.94;5054073;28;20059;-46
2023/03/07 04:31:34;;;;;;;10.17;6.90;;;3.70;67.70;;;7.19;44.74;96267.44;5056233;28;20515;-43
2023/03/07 04:34:03;;;;;;;12.17;7.23;;;3.70;67.70;;;7.21;44.64;96264.59;5073510;28;20111;-43
2023/03/07 04:36:31;;;;;;;14.43;7.03;;;3.70;67.70;;;7.21;44.36;96262.78;5054921;28;20067;-44
2023/03/07 04:38:59;;;;;;;12.10;6.80;;;3.70;67.60;;;7.19;44.44;96267.44;5073452;28;20307;-45
2023/03/07 04:41:26;;;;;;;13.00;7.50;;;3.70;67.40;;;7.13;44.58;96267.28;5055671;28;20127;-48
2023/03/07 04:44:01;;;;;;;17.07;7.23;;;3.70;67.30;;;7.15;44.50;96266.09;5055918;28;20056;-48
2023/03/07 04:46:29;;;;;;;12.50;6.57;;;3.70;67.30;;;7.17;44.23;96263.28;5055159;28;20044;-47
2023/03/07 04:48:56;;;;;;;12.83;6.77;;;3.60;67.10;;;7.14;44.68;96261.81;5055085;28;20530;-45
2023/03/07 04:51:25;;;;;;;14.13;8.17;;;3.60;67.50;;;7.15;44.98;96252.88;5055644;28;20052;-46
2023/03/07 04:53:52;;;;;;;11.70;6.57;;;3.60;67.40;;;7.07;44.51;96260.84;5053116;28;20037;-44
2023/03/07 04:56:20;;;;;;;12.90;7.13;;;3.60;67.50;;;7.10;45.12;96252.59;5054701;28;20045;-46
2023/03/07 04:58:47;;;;;;;13.37;7.73;;;3.60;67.60;;;7.13;44.59;96259.34;5055415;28;20059;-47
2023/03/07 05:01:17;;;;;;;13.53;7.00;;;3.60;67.70;;;7.13;45.13;96246.09;5054501;28;20092;-48
2023/03/07 05:03:46;;;;;;;14.10;6.93;;;3.60;67.80;;;7.15;44.47;96249.41;5073319;28;20036;-47
2023/03/07 05:06:15;;;;;;;12.90;7.47;;;3.60;67.90;;;7.15;44.91;96241.47;5055017;28;20404;-48
2023/03/07 05:08:47;;;;;;;13.33;7.37;;;3.60;67.70;;;7.15;44.86;96241.47;5055041;28;20040;-45
2023/03/07 05:11:16;;;;;;;13.93;7.77;;;3.70;67.80;;;7.15;44.51;96242.28;5054093;28;20373;-46
2023/03/07 05:13:44;;;;;;;13.50;6.43;;;3.70;67.70;;;7.15;44.25;96238.81;5054788;28;20055;-46
2023/03/07 05:16:16;;;;;;;13.27;6.70;;;3.60;67.00;;;7.14;44.30;96235.34;5072484;28;20060;-47
2023/03/07 05:18:44;;;;;;;14.30;7.30;;;3.70;66.70;;;7.14;44.38;96232.72;5054841;28;20523;-46
2023/03/07 05:21:12;;;;;;;13.23;7.17;;;3.60;66.00;;;7.13;44.36;96230.22;5054204;28;20538;-43
2023/03/07 05:23:40;;;;;;;12.33;7.97;;;3.60;66.30;;;7.14;43.81;96226.59;5054006;28;20052;-46
2023/03/07 05:26:09;;;;;;;13.57;8.40;;;3.60;66.10;;;7.06;44.17;96220.34;5072628;28;20049;-47
2023/03/07 05:28:37;;;;;;;12.03;7.03;;;3.60;65.80;;;7.07;44.57;96221.97;5071375;28;20355;-46
2023/03/07 05:31:04;;;;;;;16.47;6.83;;;3.60;65.50;;;7.08;44.59;96215.69;5070695;28;20044;-43
2023/03/07 05:33:32;;;;;;;20.67;9.10;;;3.60;65.60;;;7.09;44.54;96222.66;5054808;28;20048;-47
2023/03/07 05:36:02;;;;;;;16.27;9.23;;;3.60;65.40;;;7.10;43.95;96219.00;5054588;28;20049;-47
2023/03/07 05:38:31;;;;;;;14.33;7.93;;;3.60;64.90;;;7.11;43.88;96225.09;5070929;28;20055;-44
2023/03/07 05:40:59;;;;;;;13.57;7.87;;;3.60;65.10;;;7.06;44.03;96223.00;5053199;28;20063;-49
2023/03/07 05:43:27;;;;;;;12.77;6.83;;;3.60;65.10;;;7.05;44.23;96221.31;5072448;28;20052;-45
2023/03/07 05:45:55;;;;;;;13.27;7.40;;;3.60;64.70;;;7.07;43.59;96226.44;5054301;28;20040;-48
2023/03/07 05:48:23;;;;;;;13.43;7.53;;;3.60;64.60;;;7.10;43.90;96229.56;5046579;28;20059;-50
2023/03/07 05:50:51;;;;;;;12.27;7.43;;;3.60;64.40;;;7.10;43.67;96231.41;5054440;28;20084;-48
2023/03/07 05:53:19;;;;;;;12.00;7.27;;;3.60;63.70;;;7.13;43.60;96225.75;5053893;28;20051;-48
2023/03/07 05:55:48;;;;;;;11.03;7.00;;;3.60;63.90;;;7.13;43.42;96223.09;5053768;28;20048;-44
2023/03/07 05:58:17;;;;;;;11.33;7.10;;;3.60;63.60;;;7.11;43.57;96222.44;5053335;28;20043;-46
2023/03/07 06:00:46;;;;;;;11.93;7.70;;;3.60;63.80;;;7.11;43.22;96227.75;5054149;28;20048;-48
2023/03/07 06:03:14;;;;;;;11.80;7.27;;;3.70;63.20;;;7.04;43.63;96217.03;5054242;28;20041;-44
2023/03/07 06:05:42;;;;;;;11.07;6.50;;;3.60;63.50;;;7.04;43.19;96218.88;5053520;28;20052;-46
2023/03/07 06:08:10;;;;;;;12.57;7.27;;;3.60;63.80;;;7.07;43.46;96219.31;5053929;28;20504;-46
2023/03/07 06:10:39;;;;;;;14.00;7.07;;;3.60;63.30;;;7.06;43.29;96208.94;5053652;28;20063;-48
2023/03/07 06:13:19;;;;;;;16.80;8.63;;;3.60;63.30;;;7.05;43.54;96208.09;5053833;28;20056;-44
2023/03/07 06:15:54;;;;;;;13.77;6.53;;;3.70;62.90;;;7.12;43.72;96202.94;5054326;28;20051;-43
2023/03/07 06:18:25;;;;;;;13.33;6.50;;;3.70;63.30;;;7.12;43.19;96202.13;5070557;28;20049;-47
2023/03/07 06:21:02;;;;;;;11.63;7.20;;;3.60;63.00;;;7.05;43.01;96207.28;5037603;28;20044;-49
2023/03/07 06:23:35;;;;;;;14.17;7.13;;;3.60;62.70;;;7.00;43.50;96207.81;5046584;28;20037;-45
2023/03/07 06:26:09;;;;;;;11.90;6.80;;;3.60;62.60;;;6.98;43.63;96201.03;5038231;28;20049;-40
2023/03/07 06:28:38;;;;;;;15.07;8.07;;;3.60;62.60;;;6.98;43.17;96198.38;5061517;28;20382;-41
2023/03/07 06:31:13;;;;;;;13.33;6.97;;;3.60;62.80;;;7.00;43.58;96202.53;5052870;28;20423;-40
2023/03/07 06:33:42;;;;;;;12.23;6.97;;;3.60;62.60;;;7.02;42.72;96211.09;5037194;28;20044;-41
2023/03/07 06:36:14;;;;;;;13.70;7.37;;;3.60;62.70;;;7.03;43.42;96210.09;5053203;28;20056;-42
2023/03/07 06:38:44;;;;;;;12.63;7.07;;;3.60;62.40;;;7.03;43.06;96210.09;5069880;28;20055;-40
2023/03/07 06:41:13;;;;;;;13.03;7.37;;;3.60;62.20;;;6.99;43.37;96206.16;5053098;28;20055;-41
2023/03/07 06:43:41;;;;;;;14.97;7.97;;;3.60;62.30;;;7.03;43.60;96212.75;5053144;28;20431;-41
2023/03/07 06:46:08;;;;;;;14.90;7.07;;;3.60;62.40;;;7.05;43.55;96202.81;5071029;28;20520;-40
2023/03/07 06:48:39;;;;;;;12.00;6.63;;;3.70;62.30;;;7.10;43.37;96211.06;5053142;28;20044;-40
2023/03/07 06:51:13;;;;;;;13.50;6.57;;;3.70;62.20;;;7.12;43.21;96210.88;5051776;28;20048;-40
2023/03/07 06:53:42;;;;;;;11.50;7.17;;;3.70;61.70;;;7.11;42.58;96217.16;5052759;28;20056;-40
2023/03/07 06:56:10;;;;;;;13.70;7.27;;;3.70;62.20;;;7.15;42.91;96215.00;5070580;28;20373;-40
2023/03/07 06:58:38;;;;;;;14.63;7.50;;;3.70;62.10;;;7.18;43.17;96212.81;5051840;28;20055;-40
2023/03/07 07:01:18;;;;;;;13.93;6.67;;;3.70;62.30;;;7.19;43.26;96213.66;5053174;28;20435;-40
2023/03/07 07:03:49;;;;;;;12.93;7.50;;;3.80;62.00;;;7.19;42.79;96216.28;5060775;28;20059;-40
2023/03/07 07:06:17;;;;;;;14.67;8.73;;;3.70;61.90;;;7.17;42.67;96210.34;5052240;28;20503;-41
2023/03/07 07:08:45;;;;;;;19.57;9.67;;;3.70;62.10;;;7.16;42.52;96212.19;5053198;28;20041;-41
2023/03/07 07:11:12;;;;;;;25.33;12.17;;;3.80;62.20;;;7.20;43.22;96212.66;5070960;28;20045;-40
2023/03/07 07:13:41;;;;;;;20.23;10.60;;;3.80;62.20;;;7.22;42.51;96214.13;5053155;28;20512;-40
2023/03/07 07:16:11;;;;;;;22.47;12.47;;;3.80;62.20;;;7.25;42.71;96212.94;5060559;28;20055;-40
2023/03/07 07:18:39;;;;;;;17.33;9.43;;;3.80;62.00;;;7.22;43.03;96211.47;5052346;28;20067;-40
2023/03/07 07:21:08;;;;;;;16.60;9.23;;;3.70;62.40;;;7.28;42.54;96208.13;5053226;28;20052;-39
2023/03/07 07:23:36;;;;;;;14.80;9.10;;;3.80;62.40;;;7.28;43.23;96215.25;5052426;28;20048;-39
2023/03/07 07:26:05;;;;;;;13.73;8.70;;;3.80;62.00;;;7.26;42.49;96212.78;5052151;28;20071;-39
2023/03/07 07:28:34;;;;;;;14.33;7.90;;;3.80;62.20;;;7.31;43.05;96222.84;5052233;28;20047;-39
2023/03/07 07:31:02;;;;;;;10.40;6.53;;;3.80;62.30;;;7.27;43.04;96219.72;5051929;28;20049;-39
2023/03/07 07:33:31;;;;;;;10.93;7.50;;;3.80;62.20;;;7.32;42.59;96216.53;5069490;28;20070;-42
2023/03/07 07:35:58;;;;;;;14.07;7.77;;;3.90;62.00;;;7.33;42.71;96226.16;5052177;28;20056;-39
2023/03/07 07:38:26;;;;;;;10.77;6.63;;;3.90;62.40;;;7.39;43.13;96221.97;5052701;28;20052;-40
2023/03/07 07:40:55;;;;;;;12.70;6.90;;;3.90;62.30;;;7.43;43.17;96228.56;5052100;28;20036;-39
2023/03/07 07:43:24;;;;;;;11.37;7.07;;;4.00;62.20;;;7.46;42.83;96220.25;5068918;28;20040;-41
2023/03/07 07:46:07;;;;;;;13.55;6.57;;;4.00;61.70;;;7.49;42.53;96217.25;5052740;28;20052;-40
2023/03/07 07:48:35;;;;;;;13.70;7.27;;;4.10;62.10;;;7.55;42.63;96215.72;5068669;28;20508;-39
2023/03/07 07:51:03;;;;;;;11.50;7.83;;;4.10;62.00;;;7.60;42.55;96219.50;5046960;28;20053;-39
2023/03/07 07:53:32;;;;;;;14.47;6.90;;;4.20;61.70;;;7.65;42.79;96213.66;5051202;28;20044;-40
2023/03/07 07:56:00;;;;;;;13.63;7.13;;;4.20;62.00;;;7.70;42.14;96216.59;5051693;28;20060;-39
2023/03/07 07:58:28;;;;;;;11.60;6.97;;;4.20;61.50;;;7.75;42.47;96214.22;5052220;28;20045;-40
2023/03/07 08:00:56;;;;;;;13.50;7.53;;;4.30;61.20;;;7.77;41.91;96209.56;5052174;28;20040;-40
2023/03/07 08:03:23;;;;;;;11.90;6.47;;;4.30;62.10;;;7.83;42.58;96208.03;5071592;28;20048;-41
2023/03/07 08:05:52;;;;;;;13.17;6.10;;;4.40;60.50;;;7.92;42.06;96203.50;5055918;28;20040;-40
2023/03/07 08:08:19;;;;;;;8.57;6.03;;;4.50;60.80;;;7.98;42.11;96205.44;5074368;28;20056;-40
2023/03/07 08:10:47;;;;;;;8.73;5.87;;;4.60;59.70;;;8.00;41.84;96208.72;5074419;28;20447;-40
2023/03/07 08:13:16;;;;;;;11.90;6.70;;;4.70;60.00;;;8.05;42.16;96196.59;5074515;28;20044;-41
2023/03/07 08:15:44;;;;;;;10.57;6.33;;;4.70;59.20;;;8.11;41.53;96204.81;5073799;28;20040;-41
2023/03/07 08:18:11;;;;;;;9.00;5.33;;;4.90;59.00;;;8.22;41.77;96194.59;5074195;28;20056;-40
2023/03/07 08:20:40;;;;;;;10.33;6.27;;;5.00;58.10;;;8.23;41.61;96195.41;5074090;28;20040;-42
2023/03/07 08:23:08;;;;;;;12.67;5.93;;;5.00;57.90;;;8.21;41.47;96197.41;5056451;28;20048;-40
2023/03/07 08:25:35;;;;;;;9.83;5.40;;;5.00;57.10;;;8.30;40.95;96185.72;5073269;28;20047;-40
2023/03/07 08:28:04;;;;;;;10.03;5.43;;;5.10;56.90;;;8.45;41.00;96196.34;5074061;28;20048;-40
2023/03/07 08:30:34;;;;;;;9.27;5.63;;;5.20;57.20;;;8.12;40.49;96191.38;5065910;28;20051;-40
2023/03/07 08:33:02;;;;;;;10.10;5.23;;;5.10;55.60;;;8.26;40.27;96185.28;5073267;28;20040;-41
2023/03/07 08:35:30;;;;;;;10.30;5.40;;;5.20;56.00;;;8.33;39.97;96189.84;5073840;28;20048;-42
2023/03/07 08:37:59;;;;;;;8.47;5.07;;;5.20;55.70;;;8.39;40.47;96202.34;5073856;28;20420;-41
2023/03/07 08:40:28;;;;;;;8.40;5.53;;;5.20;55.30;;;8.38;39.76;96174.22;5074245;28;20041;-40
2023/03/07 08:42:58;;;;;;;8.77;5.27;;;5.20;55.90;;;8.52;40.02;96183.19;5073722;28;20420;-41
2023/03/07 08:45:26;;;;;;;11.27;5.77;;;5.30;55.30;;;8.55;39.82;96180.16;5073308;28;20048;-41
2023/03/07 08:47:55;;;;;;;10.60;5.17;;;5.30;54.00;;;8.60;39.60;96196.34;5073268;28;20052;-40
2023/03/07 08:50:26;;;;;;;9.77;5.77;;;5.40;53.50;;;8.59;39.47;96171.66;5073690;28;20051;-40
2023/03/07 08:52:53;;;;;;;10.03;6.37;;;5.40;54.80;;;8.59;39.36;96176.16;5056309;28;20036;-42
2023/03/07 08:55:21;;;;;;;10.87;5.83;;;5.40;53.80;;;8.59;39.33;96184.13;5072100;28;20067;-40
2023/03/07 08:57:49;;;;;;;10.47;5.80;;;5.40;53.00;;;8.50;39.19;96174.59;5053315;28;20071;-40
2023/03/07 09:00:17;;;;;;;10.53;6.53;;;5.40;52.80;;;8.51;38.88;96176.22;5073203;28;20044;-43
2023/03/07 09:02:45;;;;;;;8.00;4.40;;;5.30;52.70;;;8.39;38.28;96176.66;5073479;28;20045;-43
2023/03/07 09:05:12;;;;;;;8.10;5.40;;;5.30;51.30;;;8.53;38.54;96177.72;5039332;28;20487;-41
2023/03/07 09:07:40;;;;;;;7.53;4.27;;;5.40;52.50;;;8.60;38.83;96175.13;5073072;28;20040;-40
2023/03/07 09:10:10;;;;;;;7.97;5.07;;;5.40;51.40;;;8.63;38.34;96172.94;5073234;28;20052;-40
2023/03/07 09:12:37;;;;;;;7.57;5.23;;;5.50;52.40;;;8.69;38.18;96170.56;5053571;28;20393;-40
2023/03/07 09:15:06;;;;;;;11.63;4.57;;;5.50;51.70;;;8.61;37.59;96171.50;5073214;28;20040;-40
2023/03/07 09:17:34;;;;;;;9.10;5.33;;;5.50;50.60;;;8.55;37.16;96170.41;5064785;28;20047;-40
2023/03/07 09:20:03;;;;;;;9.03;5.23;;;5.50;49.70;;;8.54;37.83;96162.63;5073109;28;20476;-41
2023/03/07 09:22:31;;;;;;;8.00;5.17;;;5.50;50.20;;;8.58;37.42;96166.53;5073163;28;20519;-40
2023/03/07 09:24:58;;;;;;;7.87;5.00;;;5.40;50.80;;;8.65;37.47;96170.91;5055297;28;20059;-41
2023/03/07 09:27:26;;;;;;;7.33;4.13;;;5.50;49.90;;;8.60;37.48;96164.53;5072667;28;20048;-40
2023/03/07 09:29:54;;;;;;;9.00;4.77;;;5.40;49.70;;;8.62;37.08;96165.16;5072910;28;20040;-40
2023/03/07 09:32:21;;;;;;;6.63;3.83;;;5.40;50.20;;;8.56;37.36;96165.91;5072956;28;20036;-42
2023/03/07 09:34:51;;;;;;;9.33;5.17;;;5.40;49.30;;;8.64;37.22;96161.31;5072910;28;20515;-40
2023/03/07 09:37:19;;;;;;;8.87;5.07;;;5.50;50.90;;;8.74;37.24;96154.88;5054749;28;20071;-42
2023/03/07 09:39:49;;;;;;;10.67;5.43;;;5.50;50.50;;;8.70;37.25;96161.59;5072924;28;20044;-42
2023/03/07 09:42:50;;;;;;;8.97;4.67;;;5.60;50.00;;;8.65;36.75;96156.84;5054722;28;20052;-42
2023/03/07 09:45:33;;;;;;;7.33;4.80;;;5.50;49.60;;;8.73;36.63;96172.66;5070673;28;20384;-43
2023/03/07 09:48:44;;;;;;;9.43;5.50;;;5.60;47.90;;;8.67;36.40;96162.78;5038839;28;20045;-40
2023/03/07 09:51:40;;;;;;;7.77;4.60;;;5.60;48.10;;;8.82;36.59;96155.63;5047577;28;20040;-40
2023/03/07 09:54:17;;;;;;;7.33;4.10;;;5.60;48.10;;;8.84;36.30;96150.09;5055758;28;20403;-41
2023/03/07 09:56:59;;;;;;;8.10;4.57;;;5.60;47.60;;;8.90;36.24;96157.34;5064188;28;20043;-40
2023/03/07 09:59:46;;;;;;;8.50;4.50;;;5.70;46.80;;;8.57;35.27;96162.22;5072174;28;20048;-40
2023/03/07 10:02:34;;;;;;;7.50;4.30;;;5.60;47.80;;;8.62;35.76;96151.91;5053699;28;20048;-40
2023/03/07 10:05:27;;;;;;;6.47;4.37;;;5.50;46.90;;;8.67;35.58;96141.56;5054617;28;20411;-40
2023/03/07 10:07:55;;;;;;;8.23;4.60;;;5.50;46.10;;;8.68;35.49;96145.84;5066608;28;20519;-41
2023/03/07 10:10:46;;;;;;;5.70;3.63;;;5.50;48.20;;;8.73;35.63;96142.66;5054555;28;20060;-40
2023/03/07 10:14:01;;;;;;;7.37;3.70;;;5.50;47.50;;;8.76;35.66;96139.59;5072277;28;20044;-40
2023/03/07 10:16:50;;;;;;;;;;;5.50;46.80;;;8.56;35.16;96136.72;5057022;28;20037;-40
2023/03/07 10:19:47;;;;;;;5.80;3.67;;;5.50;46.40;;;8.60;35.01;96140.66;5057011;28;19928;-40
2023/03/07 10:22:26;;;;;;;6.50;3.90;;;5.40;46.90;;;8.53;35.53;96143.22;5040170;28;20055;-41
2023/03/07 10:25:25;;;;;;;5.43;3.60;;;5.30;46.70;;;8.59;35.75;96133.72;5054112;28;20051;-40
2023/03/07 10:28:07;;;;;;;5.83;3.80;;;5.30;47.30;;;8.74;35.87;96134.47;5065317;28;20044;-43
2023/03/07 10:30:35;;;;;;;9.20;4.10;;;5.50;48.00;;;8.74;35.52;96137.13;5055053;28;20040;-40
2023/03/07 10:33:15;;;;;;;7.60;3.33;;;5.50;47.50;;;8.65;35.67;96133.78;5071517;28;20047;-40
2023/03/07 10:35:47;;;;;;;6.77;3.90;;;5.40;47.40;;;8.72;35.35;96127.72;5047296;28;20051;-40
2023/03/07 10:38:42;;;;;;;7.77;6.07;;;5.40;46.80;;;8.72;35.31;96125.06;5071321;28;20067;-40
2023/03/07 10:41:15;;;;;;;5.87;3.70;;;5.40;47.70;;;8.63;34.41;96129.69;5071557;28;20052;-40
2023/03/07 10:43:44;;;;;;;8.53;4.37;;;5.40;45.50;;;8.64;35.01;96133.97;5053995;28;20045;-42
2023/03/07 10:46:20;;;;;;;6.97;4.43;;;5.40;46.70;;;8.57;34.87;96125.94;5071301;28;20404;-40
2023/03/07 10:49:16;;;;;;;6.20;3.33;;;5.40;45.60;;;8.29;33.59;96131.03;5048751;28;20040;-41